sensor_id;sensor_type;location;lat;lon;timestamp;pressure;altitude;pressure_sealevel;temperature;humidity
71145;BME280;58812;47.698;17.726;2022-10-16T00:01:45;100613.84;;;11.04;96.56
71145;BME280;58812;47.698;17.726;2022-10-16T00:04:11;100622.47;;;10.98;96.97
71145;BME280;58812;47.698;17.726;2022-10-16T00:06:36;100623.13;;;10.90;97.12
71145;BME280;58812;47.698;17.726;2022-10-16T00:09:02;100632.16;;;10.79;98.04
71145;BME280;58812;47.698;17.726;2022-10-16T00:11:31;100634.84;;;10.79;97.99
71145;BME280;58812;47.698;17.726;2022-10-16T00:14:00;100617.22;;;10.77;97.71
71145;BME280;58812;47.698;17.726;2022-10-16T00:16:27;100625.66;;;10.72;98.36
71145;BME280;58812;47.698;17.726;2022-10-16T00:18:53;100633.69;;;10.72;98.26
71145;BME280;58812;47.698;17.726;2022-10-16T00:21:21;100625.09;;;10.68;98.47
71145;BME280;58812;47.698;17.726;2022-10-16T00:23:50;100632.28;;;10.68;98.92
71145;BME280;58812;47.698;17.726;2022-10-16T00:26:17;100634.25;;;10.66;98.95
71145;BME280;58812;47.698;17.726;2022-10-16T00:28:45;100639.88;;;10.63;98.92
71145;BME280;58812;47.698;17.726;2022-10-16T00:31:11;100635.09;;;10.57;99.09
71145;BME280;58812;47.698;17.726;2022-10-16T00:33:38;100639.72;;;10.55;99.16
71145;BME280;58812;47.698;17.726;2022-10-16T00:36:05;100630.97;;;10.53;98.97
71145;BME280;58812;47.698;17.726;2022-10-16T00:38:31;100638.16;;;10.52;98.95
71145;BME280;58812;47.698;17.726;2022-10-16T00:40:56;100635.62;;;10.51;98.96
71145;BME280;58812;47.698;17.726;2022-10-16T00:43:43;100642.09;;;10.48;99.09
71145;BME280;58812;47.698;17.726;2022-10-16T00:46:16;100640.41;;;10.47;99.17
71145;BME280;58812;47.698;17.726;2022-10-16T00:48:50;100638.56;;;10.48;99.39
71145;BME280;58812;47.698;17.726;2022-10-16T00:51:19;100636.87;;;10.47;99.60
71145;BME280;58812;47.698;17.726;2022-10-16T00:53:46;100633.06;;;10.39;99.45
71145;BME280;58812;47.698;17.726;2022-10-16T00:56:11;100636.84;;;10.37;99.48
71145;BME280;58812;47.698;17.726;2022-10-16T00:58:37;100630.66;;;10.36;99.73
71145;BME280;58812;47.698;17.726;2022-10-16T01:01:02;100625.72;;;10.32;99.89
71145;BME280;58812;47.698;17.726;2022-10-16T01:03:33;100634.00;;;10.29;100.00
71145;BME280;58812;47.698;17.726;2022-10-16T01:06:28;100633.16;;;10.28;100.00
71145;BME280;58812;47.698;17.726;2022-10-16T01:11:45;100638.53;;;10.28;100.00
71145;BME280;58812;47.698;17.726;2022-10-16T01:14:47;100637.53;;;10.29;100.00
71145;BME280;58812;47.698;17.726;2022-10-16T01:17:28;100640.22;;;10.29;100.00
71145;BME280;58812;47.698;17.726;2022-10-16T01:22:43;100657.25;;;10.28;100.00
71145;BME280;58812;47.698;17.726;2022-10-16T01:25:21;100662.00;;;10.25;100.00
71145;BME280;58812;47.698;17.726;2022-10-16T01:27:49;100657.06;;;10.20;100.00
71145;BME280;58812;47.698;17.726;2022-10-16T01:30:23;100658.28;;;10.16;100.00
71145;BME280;58812;47.698;17.726;2022-10-16T01:32:56;100668.53;;;10.11;100.00
71145;BME280;58812;47.698;17.726;2022-10-16T01:35:32;100666.12;;;10.08;100.00
71145;BME280;58812;47.698;17.726;2022-10-16T01:38:12;100668.94;;;10.06;100.00
71145;BME280;58812;47.698;17.726;2022-10-16T01:40:44;100669.09;;;10.05;100.00
71145;BME280;58812;47.698;17.726;2022-10-16T01:43:14;100676.50;;;10.01;100.00
71145;BME280;58812;47.698;17.726;2022-10-16T01:45:44;100676.94;;;9.97;100.00
71145;BME280;58812;47.698;17.726;2022-10-16T01:48:12;100665.19;;;9.88;100.00
71145;BME280;58812;47.698;17.726;2022-10-16T01:50:41;100677.47;;;9.90;100.00
71145;BME280;58812;47.698;17.726;2022-10-16T01:53:11;100685.59;;;9.89;100.00
71145;BME280;58812;47.698;17.726;2022-10-16T01:55:40;100677.25;;;9.82;100.00
71145;BME280;58812;47.698;17.726;2022-10-16T01:58:12;100678.84;;;9.85;100.00
71145;BME280;58812;47.698;17.726;2022-10-16T02:00:39;100682.47;;;9.84;100.00
71145;BME280;58812;47.698;17.726;2022-10-16T02:03:07;100678.69;;;9.86;100.00
71145;BME280;58812;47.698;17.726;2022-10-16T02:05:45;100673.22;;;9.88;100.00
71145;BME280;58812;47.698;17.726;2022-10-16T02:08:11;100674.78;;;9.90;100.00
71145;BME280;58812;47.698;17.726;2022-10-16T02:10:37;100673.81;;;9.92;100.00
71145;BME280;58812;47.698;17.726;2022-10-16T02:13:06;100680.84;;;9.93;100.00
71145;BME280;58812;47.698;17.726;2022-10-16T02:15:34;100682.53;;;9.94;100.00
71145;BME280;58812;47.698;17.726;2022-10-16T02:17:59;100687.28;;;9.90;100.00
71145;BME280;58812;47.698;17.726;2022-10-16T02:20:28;100681.09;;;9.89;100.00
71145;BME280;58812;47.698;17.726;2022-10-16T02:22:58;100687.44;;;9.88;100.00
71145;BME280;58812;47.698;17.726;2022-10-16T02:25:36;100685.75;;;9.87;100.00
71145;BME280;58812;47.698;17.726;2022-10-16T02:28:23;100691.78;;;9.89;100.00
71145;BME280;58812;47.698;17.726;2022-10-16T02:31:11;100691.78;;;9.89;100.00
71145;BME280;58812;47.698;17.726;2022-10-16T02:33:40;100688.41;;;9.87;100.00
71145;BME280;58812;47.698;17.726;2022-10-16T02:36:06;100692.62;;;9.90;100.00
71145;BME280;58812;47.698;17.726;2022-10-16T02:38:32;100693.50;;;9.90;100.00
71145;BME280;58812;47.698;17.726;2022-10-16T02:40:58;100697.97;;;9.90;100.00
71145;BME280;58812;47.698;17.726;2022-10-16T02:43:25;100695.06;;;9.93;100.00
71145;BME280;58812;47.698;17.726;2022-10-16T02:45:51;100701.00;;;9.97;100.00
71145;BME280;58812;47.698;17.726;2022-10-16T02:48:16;100700.03;;;9.98;100.00
71145;BME280;58812;47.698;17.726;2022-10-16T02:50:41;100712.66;;;9.96;100.00
71145;BME280;58812;47.698;17.726;2022-10-16T02:53:07;100709.03;;;9.97;100.00
71145;BME280;58812;47.698;17.726;2022-10-16T02:55:32;100712.41;;;9.99;100.00
71145;BME280;58812;47.698;17.726;2022-10-16T02:57:58;100711.56;;;9.98;100.00
71145;BME280;58812;47.698;17.726;2022-10-16T03:00:23;100713.41;;;9.98;100.00
71145;BME280;58812;47.698;17.726;2022-10-16T03:02:49;100709.03;;;9.97;100.00
71145;BME280;58812;47.698;17.726;2022-10-16T03:05:15;100705.37;;;9.98;100.00
71145;BME280;58812;47.698;17.726;2022-10-16T03:07:41;100708.88;;;9.98;100.00
71145;BME280;58812;47.698;17.726;2022-10-16T03:10:06;100704.38;;;9.99;100.00
71145;BME280;58812;47.698;17.726;2022-10-16T03:12:32;100706.78;;;10.02;100.00
71145;BME280;58812;47.698;17.726;2022-10-16T03:14:57;100710.34;;;10.02;100.00
71145;BME280;58812;47.698;17.726;2022-10-16T03:17:23;100704.38;;;9.99;100.00
71145;BME280;58812;47.698;17.726;2022-10-16T03:19:49;100706.22;;;9.98;100.00
71145;BME280;58812;47.698;17.726;2022-10-16T03:22:14;100705.37;;;9.98;100.00
71145;BME280;58812;47.698;17.726;2022-10-16T03:24:40;100701.41;;;9.92;100.00
71145;BME280;58812;47.698;17.726;2022-10-16T03:27:05;100704.22;;;9.90;100.00
71145;BME280;58812;47.698;17.726;2022-10-16T03:29:31;100708.69;;;9.90;100.00
71145;BME280;58812;47.698;17.726;2022-10-16T03:31:58;100709.94;;;9.86;100.00
71145;BME280;58812;47.698;17.726;2022-10-16T03:34:24;100714.31;;;9.87;100.00
71145;BME280;58812;47.698;17.726;2022-10-16T03:36:49;100705.56;;;9.85;100.00
71145;BME280;58812;47.698;17.726;2022-10-16T03:39:15;100711.44;;;9.79;100.00
71145;BME280;58812;47.698;17.726;2022-10-16T03:41:40;100716.81;;;9.79;100.00
71145;BME280;58812;47.698;17.726;2022-10-16T03:44:05;100711.19;;;9.82;100.00
71145;BME280;58812;47.698;17.726;2022-10-16T03:46:31;100704.72;;;9.84;100.00
71145;BME280;58812;47.698;17.726;2022-10-16T03:48:57;100709.66;;;9.89;100.00
71145;BME280;58812;47.698;17.726;2022-10-16T03:51:22;100718.53;;;9.89;100.00
71145;BME280;58812;47.698;17.726;2022-10-16T03:53:48;100719.97;;;9.94;100.00
71145;BME280;58812;47.698;17.726;2022-10-16T03:56:13;100720.69;;;9.96;100.00
71145;BME280;58812;47.698;17.726;2022-10-16T03:58:38;100715.94;;;9.99;100.00
71145;BME280;58812;47.698;17.726;2022-10-16T04:01:04;100708.75;;;10.00;100.00
71145;BME280;58812;47.698;17.726;2022-10-16T04:03:29;100712.41;;;9.99;100.00
71145;BME280;58812;47.698;17.726;2022-10-16T04:05:55;100712.41;;;9.99;100.00
71145;BME280;58812;47.698;17.726;2022-10-16T04:08:20;100712.41;;;9.99;100.00
71145;BME280;58812;47.698;17.726;2022-10-16T04:10:46;100725.06;;;9.97;100.00
71145;BME280;58812;47.698;17.726;2022-10-16T04:13:12;100734.78;;;9.98;100.00
71145;BME280;58812;47.698;17.726;2022-10-16T04:15:38;100748.16;;;9.98;100.00
71145;BME280;58812;47.698;17.726;2022-10-16T04:18:04;100743.66;;;9.98;100.00
71145;BME280;58812;47.698;17.726;2022-10-16T04:20:29;100735.63;;;9.98;100.00
71145;BME280;58812;47.698;17.726;2022-10-16T04:22:55;100739.16;;;9.99;100.00
71145;BME280;58812;47.698;17.726;2022-10-16T04:25:21;100746.19;;;10.00;100.00
71145;BME280;58812;47.698;17.726;2022-10-16T04:27:46;100745.50;;;9.98;100.00
71145;BME280;58812;47.698;17.726;2022-10-16T04:30:12;100752.91;;;9.94;100.00
71145;BME280;58812;47.698;17.726;2022-10-16T04:32:38;100748.78;;;9.90;100.00
71145;BME280;58812;47.698;17.726;2022-10-16T04:35:03;100751.75;;;9.87;100.00
71145;BME280;58812;47.698;17.726;2022-10-16T04:37:29;100750.31;;;9.83;100.00
71145;BME280;58812;47.698;17.726;2022-10-16T04:39:54;100760.28;;;9.81;100.00
71145;BME280;58812;47.698;17.726;2022-10-16T04:42:20;100768.91;;;9.84;100.00
71145;BME280;58812;47.698;17.726;2022-10-16T04:44:46;100764.41;;;9.85;100.00
71145;BME280;58812;47.698;17.726;2022-10-16T04:47:12;100763.81;;;9.81;100.00
71145;BME280;58812;47.698;17.726;2022-10-16T04:49:37;100766.63;;;9.80;100.00
71145;BME280;58812;47.698;17.726;2022-10-16T04:52:03;100759.69;;;9.77;100.00
71145;BME280;58812;47.698;17.726;2022-10-16T04:54:28;100764.19;;;9.77;100.00
71145;BME280;58812;47.698;17.726;2022-10-16T04:56:54;100770.66;;;9.74;100.00
71145;BME280;58812;47.698;17.726;2022-10-16T04:59:20;100768.97;;;9.73;100.00
71145;BME280;58812;47.698;17.726;2022-10-16T05:01:45;100773.56;;;9.71;100.00
71145;BME280;58812;47.698;17.726;2022-10-16T05:04:11;100772.16;;;9.67;100.00
71145;BME280;58812;47.698;17.726;2022-10-16T05:06:37;100772.41;;;9.64;100.00
71145;BME280;58812;47.698;17.726;2022-10-16T05:09:04;100776.75;;;9.65;100.00
71145;BME280;58812;47.698;17.726;2022-10-16T05:11:30;100775.78;;;9.66;100.00
71145;BME280;58812;47.698;17.726;2022-10-16T05:13:56;100767.03;;;9.64;100.00
71145;BME280;58812;47.698;17.726;2022-10-16T05:16:21;100776.66;;;9.67;100.00
71145;BME280;58812;47.698;17.726;2022-10-16T05:18:47;100777.50;;;9.67;100.00
71145;BME280;58812;47.698;17.726;2022-10-16T05:21:12;100784.91;;;9.63;100.00
71145;BME280;58812;47.698;17.726;2022-10-16T05:23:37;100793.16;;;9.60;100.00
71145;BME280;58812;47.698;17.726;2022-10-16T05:26:03;100786.97;;;9.60;100.00
71145;BME280;58812;47.698;17.726;2022-10-16T05:28:29;100786.97;;;9.60;100.00
71145;BME280;58812;47.698;17.726;2022-10-16T05:30:55;100785.28;;;9.59;100.00
71145;BME280;58812;47.698;17.726;2022-10-16T05:33:21;100790.25;;;9.63;100.00
71145;BME280;58812;47.698;17.726;2022-10-16T05:35:47;100789.13;;;9.66;100.00
71145;BME280;58812;47.698;17.726;2022-10-16T05:38:12;100795.22;;;9.68;100.00
71145;BME280;58812;47.698;17.726;2022-10-16T05:40:38;100796.66;;;9.72;100.00
71145;BME280;58812;47.698;17.726;2022-10-16T05:43:04;100804.44;;;9.75;100.00
71145;BME280;58812;47.698;17.726;2022-10-16T05:45:30;100805.12;;;9.77;100.00
71145;BME280;58812;47.698;17.726;2022-10-16T05:47:55;100804.62;;;9.83;100.00
71145;BME280;58812;47.698;17.726;2022-10-16T05:50:20;100809.47;;;9.89;100.00
71145;BME280;58812;47.698;17.726;2022-10-16T05:52:46;100810.66;;;9.97;100.00
71145;BME280;58812;47.698;17.726;2022-10-16T05:55:11;100811.09;;;10.02;100.00
71145;BME280;58812;47.698;17.726;2022-10-16T05:57:36;100813.53;;;10.05;100.00
71145;BME280;58812;47.698;17.726;2022-10-16T06:00:03;100814.97;;;10.09;100.00
71145;BME280;58812;47.698;17.726;2022-10-16T06:02:28;100810.09;;;10.14;100.00
71145;BME280;58812;47.698;17.726;2022-10-16T06:04:54;100812.50;;;10.17;100.00
71145;BME280;58812;47.698;17.726;2022-10-16T06:07:20;100813.94;;;10.21;100.00
71145;BME280;58812;47.698;17.726;2022-10-16T06:09:49;100821.31;;;10.29;100.00
71145;BME280;58812;47.698;17.726;2022-10-16T06:12:15;100828.12;;;10.33;100.00
71145;BME280;58812;47.698;17.726;2022-10-16T06:14:41;100840.84;;;10.40;100.00
71145;BME280;58812;47.698;17.726;2022-10-16T06:17:06;100840.06;;;10.50;100.00
71145;BME280;58812;47.698;17.726;2022-10-16T06:19:32;100848.28;;;10.58;100.00
71145;BME280;58812;47.698;17.726;2022-10-16T06:21:57;100844.06;;;10.65;100.00
71145;BME280;58812;47.698;17.726;2022-10-16T06:24:23;100835.97;;;10.76;100.00
71145;BME280;58812;47.698;17.726;2022-10-16T06:26:49;100838.81;;;10.84;100.00
71145;BME280;58812;47.698;17.726;2022-10-16T06:29:14;100844.38;;;10.92;99.95
71145;BME280;58812;47.698;17.726;2022-10-16T06:31:39;100849.03;;;11.00;99.52
71145;BME280;58812;47.698;17.726;2022-10-16T06:34:05;100842.03;;;11.09;99.37
71145;BME280;58812;47.698;17.726;2022-10-16T06:36:34;100850.09;;;11.18;98.84
71145;BME280;58812;47.698;17.726;2022-10-16T06:39:00;100853.91;;;11.26;98.62
71145;BME280;58812;47.698;17.726;2022-10-16T06:41:25;100868.06;;;11.37;97.63
71145;BME280;58812;47.698;17.726;2022-10-16T06:43:51;100867.94;;;11.39;97.14
71145;BME280;58812;47.698;17.726;2022-10-16T06:46:19;100866.41;;;11.56;97.10
71145;BME280;58812;47.698;17.726;2022-10-16T06:48:45;100856.53;;;11.66;96.42
71145;BME280;58812;47.698;17.726;2022-10-16T06:51:16;100871.09;;;11.73;95.67
71145;BME280;58812;47.698;17.726;2022-10-16T06:53:45;100879.34;;;11.81;95.65
71145;BME280;58812;47.698;17.726;2022-10-16T06:56:21;100889.66;;;11.95;95.03
71145;BME280;58812;47.698;17.726;2022-10-16T06:58:47;100887.25;;;12.12;94.54
71145;BME280;58812;47.698;17.726;2022-10-16T07:01:14;100890.22;;;12.18;93.42
71145;BME280;58812;47.698;17.726;2022-10-16T07:03:41;100895.28;;;12.21;92.85
71145;BME280;58812;47.698;17.726;2022-10-16T07:06:09;100895.03;;;12.24;93.34
71145;BME280;58812;47.698;17.726;2022-10-16T07:08:37;100899.84;;;12.40;92.63
71145;BME280;58812;47.698;17.726;2022-10-16T07:11:05;100911.97;;;12.54;92.17
71145;BME280;58812;47.698;17.726;2022-10-16T07:13:38;100915.59;;;12.63;91.12
71145;BME280;58812;47.698;17.726;2022-10-16T07:16:08;100919.56;;;12.68;91.21
71145;BME280;58812;47.698;17.726;2022-10-16T07:18:34;100918.56;;;12.79;90.67
71145;BME280;58812;47.698;17.726;2022-10-16T07:21:06;100914.87;;;12.80;90.91
71145;BME280;58812;47.698;17.726;2022-10-16T07:23:33;100924.59;;;12.91;90.81
71145;BME280;58812;47.698;17.726;2022-10-16T07:25:58;100924.53;;;13.20;89.21
71145;BME280;58812;47.698;17.726;2022-10-16T07:28:24;100914.75;;;13.19;89.34
71145;BME280;58812;47.698;17.726;2022-10-16T07:30:49;100920.41;;;13.35;89.18
71145;BME280;58812;47.698;17.726;2022-10-16T07:33:15;100916.03;;;13.52;89.59
71145;BME280;58812;47.698;17.726;2022-10-16T07:35:50;100926.72;;;13.71;87.97
71145;BME280;58812;47.698;17.726;2022-10-16T07:38:16;100934.28;;;13.85;87.48
71145;BME280;58812;47.698;17.726;2022-10-16T07:40:42;100936.91;;;13.95;86.86
71145;BME280;58812;47.698;17.726;2022-10-16T07:43:07;100943.53;;;14.01;85.27
71145;BME280;58812;47.698;17.726;2022-10-16T07:45:32;100942.94;;;14.25;85.07
71145;BME280;58812;47.698;17.726;2022-10-16T07:47:58;100952.13;;;14.40;84.00
71145;BME280;58812;47.698;17.726;2022-10-16T07:50:23;100957.72;;;14.56;82.92
71145;BME280;58812;47.698;17.726;2022-10-16T07:52:48;100959.31;;;14.67;82.67
71145;BME280;58812;47.698;17.726;2022-10-16T07:55:14;100967.38;;;14.85;82.79
71145;BME280;58812;47.698;17.726;2022-10-16T07:57:39;100966.53;;;14.84;81.87
71145;BME280;58812;47.698;17.726;2022-10-16T08:00:05;100971.09;;;14.84;81.74
71145;BME280;58812;47.698;17.726;2022-10-16T08:02:31;100967.75;;;14.90;81.49
71145;BME280;58812;47.698;17.726;2022-10-16T08:04:56;100969.81;;;14.96;81.22
71145;BME280;58812;47.698;17.726;2022-10-16T08:07:22;100976.59;;;15.00;80.95
71145;BME280;58812;47.698;17.726;2022-10-16T08:09:50;100983.44;;;15.12;80.41
71145;BME280;58812;47.698;17.726;2022-10-16T08:12:17;100982.16;;;15.25;78.88
71145;BME280;58812;47.698;17.726;2022-10-16T08:14:42;100983.78;;;15.43;79.24
71145;BME280;58812;47.698;17.726;2022-10-16T08:17:07;100988.28;;;16.03;77.47
71145;BME280;58812;47.698;17.726;2022-10-16T08:19:33;101003.88;;;16.42;75.17
71145;BME280;58812;47.698;17.726;2022-10-16T08:22:00;100998.53;;;16.82;73.09
71145;BME280;58812;47.698;17.726;2022-10-16T08:24:25;100996.41;;;17.50;71.75
71145;BME280;58812;47.698;17.726;2022-10-16T08:26:53;100986.19;;;17.76;69.15
71145;BME280;58812;47.698;17.726;2022-10-16T08:29:19;100990.25;;;18.11;67.74
71145;BME280;58812;47.698;17.726;2022-10-16T08:31:44;100997.47;;;18.19;66.87
71145;BME280;58812;47.698;17.726;2022-10-16T08:34:09;100991.56;;;18.47;65.62
71145;BME280;58812;47.698;17.726;2022-10-16T08:36:35;100997.72;;;18.86;65.21
71145;BME280;58812;47.698;17.726;2022-10-16T08:39:00;101002.72;;;18.98;64.68
71145;BME280;58812;47.698;17.726;2022-10-16T08:44:31;100990.28;;;19.33;63.28
71145;BME280;58812;47.698;17.726;2022-10-16T08:47:25;100996.87;;;19.24;63.57
71145;BME280;58812;47.698;17.726;2022-10-16T08:50:09;100996.31;;;19.43;62.85
71145;BME280;58812;47.698;17.726;2022-10-16T08:52:38;100997.94;;;19.67;61.69
71145;BME280;58812;47.698;17.726;2022-10-16T08:55:04;101007.22;;;19.87;60.49
71145;BME280;58812;47.698;17.726;2022-10-16T08:57:30;100999.34;;;19.92;60.27
71145;BME280;58812;47.698;17.726;2022-10-16T09:00:00;101007.94;;;20.32;59.72
71145;BME280;58812;47.698;17.726;2022-10-16T09:02:33;101003.75;;;20.15;58.98
71145;BME280;58812;47.698;17.726;2022-10-16T09:08:15;101001.59;;;21.11;56.92
71145;BME280;58812;47.698;17.726;2022-10-16T09:10:57;101000.16;;;21.36;55.81
71145;BME280;58812;47.698;17.726;2022-10-16T09:16:27;100997.44;;;21.71;54.78
71145;BME280;58812;47.698;17.726;2022-10-16T09:21:35;100977.06;;;21.67;54.60
71145;BME280;58812;47.698;17.726;2022-10-16T09:24:10;100974.81;;;21.77;54.58
71145;BME280;58812;47.698;17.726;2022-10-16T09:26:38;100982.19;;;21.83;54.21
71145;BME280;58812;47.698;17.726;2022-10-16T09:29:03;100987.97;;;21.32;55.74
71145;BME280;58812;47.698;17.726;2022-10-16T09:31:29;100989.06;;;21.79;54.82
71145;BME280;58812;47.698;17.726;2022-10-16T09:34:02;100996.91;;;22.50;52.96
71145;BME280;58812;47.698;17.726;2022-10-16T09:36:43;100994.13;;;22.30;52.00
71145;BME280;58812;47.698;17.726;2022-10-16T09:39:10;100997.34;;;22.66;52.07
71145;BME280;58812;47.698;17.726;2022-10-16T09:41:42;100999.41;;;22.58;52.10
71145;BME280;58812;47.698;17.726;2022-10-16T09:44:27;101005.22;;;22.28;52.02
71145;BME280;58812;47.698;17.726;2022-10-16T09:47:13;101004.47;;;22.54;51.70
71145;BME280;58812;47.698;17.726;2022-10-16T09:49:51;101008.00;;;21.94;52.81
71145;BME280;58812;47.698;17.726;2022-10-16T09:52:18;101011.59;;;22.49;51.34
71145;BME280;58812;47.698;17.726;2022-10-16T09:54:55;101018.38;;;22.86;50.56
71145;BME280;58812;47.698;17.726;2022-10-16T09:57:21;101008.72;;;23.36;49.49
71145;BME280;58812;47.698;17.726;2022-10-16T09:59:52;101019.00;;;22.88;50.16
71145;BME280;58812;47.698;17.726;2022-10-16T10:02:37;101024.66;;;22.73;51.34
71145;BME280;58812;47.698;17.726;2022-10-16T10:05:06;101017.13;;;23.22;49.41
71145;BME280;58812;47.698;17.726;2022-10-16T10:07:43;101024.50;;;23.14;50.13
71145;BME280;58812;47.698;17.726;2022-10-16T10:10:23;101025.28;;;22.75;51.06
71145;BME280;58812;47.698;17.726;2022-10-16T10:12:49;101023.81;;;22.86;50.48
71145;BME280;58812;47.698;17.726;2022-10-16T10:15:15;101011.47;;;23.03;50.01
71145;BME280;58812;47.698;17.726;2022-10-16T10:20:29;101010.41;;;22.98;50.14
71145;BME280;58812;47.698;17.726;2022-10-16T10:22:57;101011.25;;;23.31;49.97
71145;BME280;58812;47.698;17.726;2022-10-16T10:25:49;101011.66;;;23.48;49.22
71145;BME280;58812;47.698;17.726;2022-10-16T10:31:18;101009.38;;;22.99;49.24
71145;BME280;58812;47.698;17.726;2022-10-16T10:34:00;101009.34;;;22.79;50.96
71145;BME280;58812;47.698;17.726;2022-10-16T10:36:34;101006.56;;;23.71;48.55
71145;BME280;58812;47.698;17.726;2022-10-16T10:39:13;101010.34;;;23.57;48.22
71145;BME280;58812;47.698;17.726;2022-10-16T10:42:09;101003.66;;;23.40;48.55
71145;BME280;58812;47.698;17.726;2022-10-16T10:47:36;101008.44;;;23.84;47.83
71145;BME280;58812;47.698;17.726;2022-10-16T10:50:20;101000.31;;;24.54;46.76
71145;BME280;58812;47.698;17.726;2022-10-16T10:52:56;100997.09;;;24.19;47.00
71145;BME280;58812;47.698;17.726;2022-10-16T11:01:19;101005.72;;;24.22;46.46
71145;BME280;58812;47.698;17.726;2022-10-16T11:04:18;100999.66;;;24.20;46.90
71145;BME280;58812;47.698;17.726;2022-10-16T11:09:31;100999.53;;;23.95;47.61
71145;BME280;58812;47.698;17.726;2022-10-16T11:12:05;101000.84;;;24.31;46.58
71145;BME280;58812;47.698;17.726;2022-10-16T11:14:38;100988.38;;;24.73;45.86
71145;BME280;58812;47.698;17.726;2022-10-16T11:17:19;100994.75;;;24.67;46.19
71145;BME280;58812;47.698;17.726;2022-10-16T11:20:16;100988.84;;;24.39;46.96
71145;BME280;58812;47.698;17.726;2022-10-16T11:22:50;100977.00;;;24.00;47.72
71145;BME280;58812;47.698;17.726;2022-10-16T11:27:50;100975.66;;;24.86;45.96
71145;BME280;58812;47.698;17.726;2022-10-16T11:30:21;100962.13;;;24.91;45.80
71145;BME280;58812;47.698;17.726;2022-10-16T11:33:30;100972.53;;;24.50;46.26
71145;BME280;58812;47.698;17.726;2022-10-16T11:36:08;100971.41;;;24.27;46.79
71145;BME280;58812;47.698;17.726;2022-10-16T11:49:31;100953.97;;;24.21;47.29
71145;BME280;58812;47.698;17.726;2022-10-16T11:56:58;100962.06;;;24.41;46.66
71145;BME280;58812;47.698;17.726;2022-10-16T11:59:31;100951.72;;;24.74;46.78
71145;BME280;58812;47.698;17.726;2022-10-16T12:02:20;100950.09;;;24.92;46.19
71145;BME280;58812;47.698;17.726;2022-10-16T12:05:06;100946.63;;;24.78;46.32
71145;BME280;58812;47.698;17.726;2022-10-16T12:07:38;100953.28;;;24.89;46.28
71145;BME280;58812;47.698;17.726;2022-10-16T12:10:27;100950.69;;;24.44;46.91
71145;BME280;58812;47.698;17.726;2022-10-16T12:12:53;100957.06;;;24.31;47.33
71145;BME280;58812;47.698;17.726;2022-10-16T12:15:29;100950.22;;;24.78;46.57
71145;BME280;58812;47.698;17.726;2022-10-16T12:17:55;100959.47;;;24.52;46.30
71145;BME280;58812;47.698;17.726;2022-10-16T12:20:39;100955.87;;;25.09;45.87
71145;BME280;58812;47.698;17.726;2022-10-16T12:23:19;100949.41;;;24.71;46.20
71145;BME280;58812;47.698;17.726;2022-10-16T12:25:58;100957.06;;;24.31;47.86
71145;BME280;58812;47.698;17.726;2022-10-16T12:28:31;100956.28;;;24.17;47.64
71145;BME280;58812;47.698;17.726;2022-10-16T12:31:03;100959.09;;;24.49;47.00
71145;BME280;58812;47.698;17.726;2022-10-16T12:33:51;100949.94;;;23.85;47.47
71145;BME280;58812;47.698;17.726;2022-10-16T12:38:53;100961.09;;;23.84;48.90
71145;BME280;58812;47.698;17.726;2022-10-16T12:41:35;100953.38;;;23.67;49.26
71145;BME280;58812;47.698;17.726;2022-10-16T12:44:04;100963.50;;;24.05;48.66
71145;BME280;58812;47.698;17.726;2022-10-16T12:51:53;100947.06;;;24.12;48.31
71145;BME280;58812;47.698;17.726;2022-10-16T12:54:22;100951.47;;;24.19;47.45
71145;BME280;58812;47.698;17.726;2022-10-16T12:59:35;100953.13;;;23.76;48.52
71145;BME280;58812;47.698;17.726;2022-10-16T13:18:21;100949.50;;;22.90;50.40
71145;BME280;58812;47.698;17.726;2022-10-16T13:23:37;100955.19;;;23.02;50.01
71145;BME280;58812;47.698;17.726;2022-10-16T13:26:31;100962.31;;;23.03;50.15
71145;BME280;58812;47.698;17.726;2022-10-16T13:29:02;100958.31;;;22.99;49.82
71145;BME280;58812;47.698;17.726;2022-10-16T13:31:29;100966.03;;;22.49;51.41
71145;BME280;58812;47.698;17.726;2022-10-16T13:33:58;100961.88;;;22.53;51.21
71145;BME280;58812;47.698;17.726;2022-10-16T13:36:35;100965.00;;;22.77;50.48
71145;BME280;58812;47.698;17.726;2022-10-16T13:39:11;100967.31;;;22.80;50.14
71145;BME280;58812;47.698;17.726;2022-10-16T13:41:37;100964.56;;;22.47;51.42
71145;BME280;58812;47.698;17.726;2022-10-16T13:44:03;100964.59;;;22.60;50.95
71145;BME280;58812;47.698;17.726;2022-10-16T13:46:30;100965.44;;;22.60;50.36
71145;BME280;58812;47.698;17.726;2022-10-16T13:49:13;100964.59;;;22.53;50.65
71145;BME280;58812;47.698;17.726;2022-10-16T13:51:39;100971.28;;;22.44;52.06
71145;BME280;58812;47.698;17.726;2022-10-16T13:54:04;100978.00;;;22.48;51.43
71145;BME280;58812;47.698;17.726;2022-10-16T13:56:32;100973.78;;;22.46;51.34
71145;BME280;58812;47.698;17.726;2022-10-16T13:59:05;100975.87;;;22.30;51.93
71145;BME280;58812;47.698;17.726;2022-10-16T14:01:33;100968.28;;;22.12;51.89
71145;BME280;58812;47.698;17.726;2022-10-16T14:04:06;100977.25;;;22.06;52.06
71145;BME280;58812;47.698;17.726;2022-10-16T14:06:32;100979.09;;;21.99;52.59
71145;BME280;58812;47.698;17.726;2022-10-16T14:09:07;100980.72;;;21.87;52.88
71145;BME280;58812;47.698;17.726;2022-10-16T14:11:33;100975.91;;;21.82;52.30
71145;BME280;58812;47.698;17.726;2022-10-16T14:14:01;100974.84;;;21.83;53.05